sensor_id;sensor_type;location;lat;lon;timestamp;temperature;humidity
75500;DHT22;64076;51.466;7.260;2024-02-16T00:00:40;25.70;35.70
75500;DHT22;64076;51.466;7.260;2024-02-16T00:03:09;25.70;35.70
75500;DHT22;64076;51.466;7.260;2024-02-16T00:05:35;25.70;35.70
75500;DHT22;64076;51.466;7.260;2024-02-16T00:08:02;25.70;35.80
75500;DHT22;64076;51.466;7.260;2024-02-16T00:10:28;25.70;35.80
75500;DHT22;64076;51.466;7.260;2024-02-16T00:12:54;25.70;35.80
75500;DHT22;64076;51.466;7.260;2024-02-16T00:15:19;25.70;35.80
75500;DHT22;64076;51.466;7.260;2024-02-16T00:17:45;25.70;35.70
75500;DHT22;64076;51.466;7.260;2024-02-16T00:20:11;25.70;35.70
75500;DHT22;64076;51.466;7.260;2024-02-16T00:22:39;25.70;35.70
75500;DHT22;64076;51.466;7.260;2024-02-16T00:25:05;25.70;35.80
75500;DHT22;64076;51.466;7.260;2024-02-16T00:27:31;25.70;35.70
75500;DHT22;64076;51.466;7.260;2024-02-16T00:29:56;25.70;35.70
75500;DHT22;64076;51.466;7.260;2024-02-16T00:32:22;25.70;35.80
75500;DHT22;64076;51.466;7.260;2024-02-16T00:34:50;25.70;35.70
75500;DHT22;64076;51.466;7.260;2024-02-16T00:37:17;25.70;35.80
75500;DHT22;64076;51.466;7.260;2024-02-16T00:39:42;25.70;35.70
75500;DHT22;64076;51.466;7.260;2024-02-16T00:42:09;25.70;35.70
75500;DHT22;64076;51.466;7.260;2024-02-16T00:44:34;25.70;35.70
75500;DHT22;64076;51.466;7.260;2024-02-16T00:47:00;25.70;35.70
75500;DHT22;64076;51.466;7.260;2024-02-16T00:49:26;25.70;35.70
75500;DHT22;64076;51.466;7.260;2024-02-16T00:51:51;25.70;35.70
75500;DHT22;64076;51.466;7.260;2024-02-16T00:54:17;25.70;35.70
75500;DHT22;64076;51.466;7.260;2024-02-16T00:56:43;25.70;35.70
75500;DHT22;64076;51.466;7.260;2024-02-16T00:59:08;25.70;35.70
75500;DHT22;64076;51.466;7.260;2024-02-16T01:04:04;25.70;35.70
75500;DHT22;64076;51.466;7.260;2024-02-16T01:06:29;25.70;35.70
75500;DHT22;64076;51.466;7.260;2024-02-16T01:08:55;25.70;35.70
75500;DHT22;64076;51.466;7.260;2024-02-16T01:11:21;25.70;35.70
75500;DHT22;64076;51.466;7.260;2024-02-16T01:13:47;25.70;35.70
75500;DHT22;64076;51.466;7.260;2024-02-16T01:16:13;25.70;35.70
75500;DHT22;64076;51.466;7.260;2024-02-16T01:18:39;25.70;35.70
75500;DHT22;64076;51.466;7.260;2024-02-16T01:21:05;25.70;35.70
75500;DHT22;64076;51.466;7.260;2024-02-16T01:23:31;25.70;35.70
75500;DHT22;64076;51.466;7.260;2024-02-16T01:25:56;25.70;35.60
75500;DHT22;64076;51.466;7.260;2024-02-16T01:28:22;25.70;35.70
75500;DHT22;64076;51.466;7.260;2024-02-16T01:30:49;25.70;35.70
75500;DHT22;64076;51.466;7.260;2024-02-16T01:33:15;25.70;35.60
75500;DHT22;64076;51.466;7.260;2024-02-16T01:35:40;25.70;35.70
75500;DHT22;64076;51.466;7.260;2024-02-16T01:38:06;25.70;35.70
75500;DHT22;64076;51.466;7.260;2024-02-16T01:40:31;25.70;35.60
75500;DHT22;64076;51.466;7.260;2024-02-16T01:42:57;25.70;35.70
75500;DHT22;64076;51.466;7.260;2024-02-16T01:45:22;25.70;35.60
75500;DHT22;64076;51.466;7.260;2024-02-16T01:47:50;25.70;35.70
75500;DHT22;64076;51.466;7.260;2024-02-16T01:50:17;25.70;35.70
75500;DHT22;64076;51.466;7.260;2024-02-16T01:52:44;25.70;35.60
75500;DHT22;64076;51.466;7.260;2024-02-16T01:55:10;25.70;35.60
75500;DHT22;64076;51.466;7.260;2024-02-16T01:57:43;25.70;35.70
75500;DHT22;64076;51.466;7.260;2024-02-16T02:00:09;25.70;35.70
75500;DHT22;64076;51.466;7.260;2024-02-16T02:02:36;25.70;35.70
75500;DHT22;64076;51.466;7.260;2024-02-16T02:05:02;25.70;35.60
75500;DHT22;64076;51.466;7.260;2024-02-16T02:07:28;25.70;35.60
75500;DHT22;64076;51.466;7.260;2024-02-16T02:09:54;25.70;35.60
75500;DHT22;64076;51.466;7.260;2024-02-16T02:12:20;25.70;35.60
75500;DHT22;64076;51.466;7.260;2024-02-16T02:14:46;25.70;35.60
75500;DHT22;64076;51.466;7.260;2024-02-16T02:17:12;25.70;35.60
75500;DHT22;64076;51.466;7.260;2024-02-16T02:19:38;25.70;35.50
75500;DHT22;64076;51.466;7.260;2024-02-16T02:22:04;25.70;35.60
75500;DHT22;64076;51.466;7.260;2024-02-16T02:24:29;25.60;35.60
75500;DHT22;64076;51.466;7.260;2024-02-16T02:26:55;25.70;35.60
75500;DHT22;64076;51.466;7.260;2024-02-16T02:29:22;25.70;35.60
75500;DHT22;64076;51.466;7.260;2024-02-16T02:31:48;25.70;35.50
75500;DHT22;64076;51.466;7.260;2024-02-16T02:34:13;25.70;35.50
75500;DHT22;64076;51.466;7.260;2024-02-16T02:36:40;25.70;35.50
75500;DHT22;64076;51.466;7.260;2024-02-16T02:39:06;25.70;35.50
75500;DHT22;64076;51.466;7.260;2024-02-16T02:41:32;25.70;35.50
75500;DHT22;64076;51.466;7.260;2024-02-16T02:43:58;25.70;35.50
75500;DHT22;64076;51.466;7.260;2024-02-16T02:46:23;25.70;35.50
75500;DHT22;64076;51.466;7.260;2024-02-16T02:48:53;25.70;35.50
75500;DHT22;64076;51.466;7.260;2024-02-16T02:51:18;25.70;35.50
75500;DHT22;64076;51.466;7.260;2024-02-16T02:53:44;25.70;35.50
75500;DHT22;64076;51.466;7.260;2024-02-16T02:56:09;25.60;35.50
75500;DHT22;64076;51.466;7.260;2024-02-16T02:58:35;25.70;35.50
75500;DHT22;64076;51.466;7.260;2024-02-16T03:01:03;25.70;35.50
75500;DHT22;64076;51.466;7.260;2024-02-16T03:03:28;25.70;35.50
75500;DHT22;64076;51.466;7.260;2024-02-16T03:05:54;25.70;35.50
75500;DHT22;64076;51.466;7.260;2024-02-16T03:08:20;25.70;35.50
75500;DHT22;64076;51.466;7.260;2024-02-16T03:10:45;25.70;35.50
75500;DHT22;64076;51.466;7.260;2024-02-16T03:13:11;25.70;35.50
75500;DHT22;64076;51.466;7.260;2024-02-16T03:15:38;25.70;35.50
75500;DHT22;64076;51.466;7.260;2024-02-16T03:18:05;25.70;35.50
75500;DHT22;64076;51.466;7.260;2024-02-16T03:20:34;25.70;35.50
75500;DHT22;64076;51.466;7.260;2024-02-16T03:23:00;25.60;35.50
75500;DHT22;64076;51.466;7.260;2024-02-16T03:25:25;25.70;35.50
75500;DHT22;64076;51.466;7.260;2024-02-16T03:27:51;25.70;35.50
75500;DHT22;64076;51.466;7.260;2024-02-16T03:30:18;25.60;35.50
75500;DHT22;64076;51.466;7.260;2024-02-16T03:32:48;25.60;35.50
75500;DHT22;64076;51.466;7.260;2024-02-16T03:35:14;25.60;35.50
75500;DHT22;64076;51.466;7.260;2024-02-16T03:37:40;25.70;35.50
75500;DHT22;64076;51.466;7.260;2024-02-16T03:40:06;25.70;35.50
75500;DHT22;64076;51.466;7.260;2024-02-16T03:42:33;25.70;35.40
75500;DHT22;64076;51.466;7.260;2024-02-16T03:44:58;25.60;35.50
75500;DHT22;64076;51.466;7.260;2024-02-16T03:47:24;25.70;35.50
75500;DHT22;64076;51.466;7.260;2024-02-16T03:49:49;25.60;35.50
75500;DHT22;64076;51.466;7.260;2024-02-16T03:52:15;25.60;35.50
75500;DHT22;64076;51.466;7.260;2024-02-16T03:54:40;25.60;35.50
75500;DHT22;64076;51.466;7.260;2024-02-16T03:57:07;25.60;35.50
75500;DHT22;64076;51.466;7.260;2024-02-16T03:59:34;25.60;35.40
75500;DHT22;64076;51.466;7.260;2024-02-16T04:02:00;25.60;35.50
75500;DHT22;64076;51.466;7.260;2024-02-16T04:04:25;25.60;35.50
75500;DHT22;64076;51.466;7.260;2024-02-16T04:06:52;25.60;35.40
75500;DHT22;64076;51.466;7.260;2024-02-16T04:09:17;25.60;35.50
75500;DHT22;64076;51.466;7.260;2024-02-16T04:11:45;25.60;35.40
75500;DHT22;64076;51.466;7.260;2024-02-16T04:14:11;25.60;35.50
75500;DHT22;64076;51.466;7.260;2024-02-16T04:16:36;25.60;35.40
75500;DHT22;64076;51.466;7.260;2024-02-16T04:19:11;25.60;35.40
75500;DHT22;64076;51.466;7.260;2024-02-16T04:21:36;25.60;35.40
75500;DHT22;64076;51.466;7.260;2024-02-16T04:24:02;25.60;35.40
75500;DHT22;64076;51.466;7.260;2024-02-16T04:26:28;25.60;35.40
75500;DHT22;64076;51.466;7.260;2024-02-16T04:28:54;25.60;35.40
75500;DHT22;64076;51.466;7.260;2024-02-16T04:31:19;25.60;35.40
75500;DHT22;64076;51.466;7.260;2024-02-16T04:33:45;25.60;35.40
75500;DHT22;64076;51.466;7.260;2024-02-16T04:36:10;25.60;35.40
75500;DHT22;64076;51.466;7.260;2024-02-16T04:38:36;25.60;35.40
75500;DHT22;64076;51.466;7.260;2024-02-16T04:41:01;25.60;35.40
75500;DHT22;64076;51.466;7.260;2024-02-16T04:43:27;25.60;35.40
75500;DHT22;64076;51.466;7.260;2024-02-16T04:45:52;25.60;35.40
75500;DHT22;64076;51.466;7.260;2024-02-16T04:48:19;25.60;35.40
75500;DHT22;64076;51.466;7.260;2024-02-16T04:50:51;25.60;35.40
75500;DHT22;64076;51.466;7.260;2024-02-16T04:53:17;25.60;35.50
75500;DHT22;64076;51.466;7.260;2024-02-16T04:55:42;25.60;35.40
75500;DHT22;64076;51.466;7.260;2024-02-16T04:58:08;25.60;35.50
75500;DHT22;64076;51.466;7.260;2024-02-16T05:00:37;25.60;35.40
75500;DHT22;64076;51.466;7.260;2024-02-16T05:03:03;25.60;35.50
75500;DHT22;64076;51.466;7.260;2024-02-16T05:05:28;25.60;35.50
75500;DHT22;64076;51.466;7.260;2024-02-16T05:07:55;25.60;35.50
75500;DHT22;64076;51.466;7.260;2024-02-16T05:10:21;25.60;35.50
75500;DHT22;64076;51.466;7.260;2024-02-16T05:12:46;25.60;35.50
75500;DHT22;64076;51.466;7.260;2024-02-16T05:15:12;25.60;35.50
75500;DHT22;64076;51.466;7.260;2024-02-16T05:17:41;25.60;35.50
75500;DHT22;64076;51.466;7.260;2024-02-16T05:20:11;25.60;35.50
75500;DHT22;64076;51.466;7.260;2024-02-16T05:22:41;25.60;35.50
75500;DHT22;64076;51.466;7.260;2024-02-16T05:25:08;25.60;35.50
75500;DHT22;64076;51.466;7.260;2024-02-16T05:27:34;25.60;35.50
75500;DHT22;64076;51.466;7.260;2024-02-16T05:30:00;25.60;35.50
75500;DHT22;64076;51.466;7.260;2024-02-16T05:32:25;25.60;35.50
75500;DHT22;64076;51.466;7.260;2024-02-16T05:34:51;25.60;35.50
75500;DHT22;64076;51.466;7.260;2024-02-16T05:37:17;25.60;35.50
75500;DHT22;64076;51.466;7.260;2024-02-16T05:39:43;25.60;35.50
75500;DHT22;64076;51.466;7.260;2024-02-16T05:42:20;25.60;35.60
75500;DHT22;64076;51.466;7.260;2024-02-16T05:44:47;25.60;35.50
75500;DHT22;64076;51.466;7.260;2024-02-16T05:47:13;25.60;35.50
75500;DHT22;64076;51.466;7.260;2024-02-16T05:49:39;25.60;35.50
75500;DHT22;64076;51.466;7.260;2024-02-16T05:52:05;25.60;35.60
75500;DHT22;64076;51.466;7.260;2024-02-16T05:54:46;25.60;35.60
75500;DHT22;64076;51.466;7.260;2024-02-16T05:57:13;25.60;35.50
75500;DHT22;64076;51.466;7.260;2024-02-16T05:59:39;25.60;35.60
75500;DHT22;64076;51.466;7.260;2024-02-16T06:02:05;25.60;35.60
75500;DHT22;64076;51.466;7.260;2024-02-16T06:04:34;25.60;35.60
75500;DHT22;64076;51.466;7.260;2024-02-16T06:06:59;25.60;35.60
75500;DHT22;64076;51.466;7.260;2024-02-16T06:09:26;25.60;35.60
75500;DHT22;64076;51.466;7.260;2024-02-16T06:11:51;25.60;35.60
75500;DHT22;64076;51.466;7.260;2024-02-16T06:14:17;25.60;35.60
75500;DHT22;64076;51.466;7.260;2024-02-16T06:16:43;25.60;35.60
75500;DHT22;64076;51.466;7.260;2024-02-16T06:19:08;25.60;35.60
75500;DHT22;64076;51.466;7.260;2024-02-16T06:21:35;25.60;35.60
75500;DHT22;64076;51.466;7.260;2024-02-16T06:24:01;25.60;35.60
75500;DHT22;64076;51.466;7.260;2024-02-16T06:26:26;25.60;35.60
75500;DHT22;64076;51.466;7.260;2024-02-16T06:28:52;25.60;35.60
75500;DHT22;64076;51.466;7.260;2024-02-16T06:31:17;25.60;35.70
75500;DHT22;64076;51.466;7.260;2024-02-16T06:33:43;25.60;35.70
75500;DHT22;64076;51.466;7.260;2024-02-16T06:36:08;25.60;35.70
75500;DHT22;64076;51.466;7.260;2024-02-16T06:38:36;25.60;35.80
75500;DHT22;64076;51.466;7.260;2024-02-16T06:41:01;25.60;35.80
75500;DHT22;64076;51.466;7.260;2024-02-16T06:43:28;25.60;35.80
75500;DHT22;64076;51.466;7.260;2024-02-16T06:45:54;25.60;35.90
75500;DHT22;64076;51.466;7.260;2024-02-16T06:48:22;25.60;35.90
75500;DHT22;64076;51.466;7.260;2024-02-16T06:50:47;25.60;35.90
75500;DHT22;64076;51.466;7.260;2024-02-16T06:53:13;25.60;35.90
75500;DHT22;64076;51.466;7.260;2024-02-16T06:55:38;25.60;35.90
75500;DHT22;64076;51.466;7.260;2024-02-16T06:58:04;25.60;35.90
75500;DHT22;64076;51.466;7.260;2024-02-16T07:00:29;25.60;35.90
75500;DHT22;64076;51.466;7.260;2024-02-16T07:02:55;25.60;35.90
75500;DHT22;64076;51.466;7.260;2024-02-16T07:05:20;25.60;35.90
75500;DHT22;64076;51.466;7.260;2024-02-16T07:07:46;25.60;35.90
75500;DHT22;64076;51.466;7.260;2024-02-16T07:10:11;25.60;35.90
75500;DHT22;64076;51.466;7.260;2024-02-16T07:12:39;25.60;35.90
75500;DHT22;64076;51.466;7.260;2024-02-16T07:15:05;25.60;35.90
75500;DHT22;64076;51.466;7.260;2024-02-16T07:17:31;25.60;36.00
75500;DHT22;64076;51.466;7.260;2024-02-16T07:19:56;25.60;36.00
75500;DHT22;64076;51.466;7.260;2024-02-16T07:22:22;25.60;36.00
75500;DHT22;64076;51.466;7.260;2024-02-16T07:24:47;25.60;36.00
75500;DHT22;64076;51.466;7.260;2024-02-16T07:27:13;25.60;35.90
75500;DHT22;64076;51.466;7.260;2024-02-16T07:29:39;25.60;35.90
75500;DHT22;64076;51.466;7.260;2024-02-16T07:32:05;25.60;35.90
75500;DHT22;64076;51.466;7.260;2024-02-16T07:34:30;25.60;36.00
75500;DHT22;64076;51.466;7.260;2024-02-16T07:36:56;25.60;35.90
75500;DHT22;64076;51.466;7.260;2024-02-16T07:39:22;25.60;36.00
75500;DHT22;64076;51.466;7.260;2024-02-16T07:41:49;25.70;36.00
75500;DHT22;64076;51.466;7.260;2024-02-16T07:44:14;25.70;36.00
75500;DHT22;64076;51.466;7.260;2024-02-16T07:46:41;25.70;35.90
75500;DHT22;64076;51.466;7.260;2024-02-16T07:49:07;25.70;35.90
75500;DHT22;64076;51.466;7.260;2024-02-16T07:51:32;25.70;35.90
75500;DHT22;64076;51.466;7.260;2024-02-16T07:53:58;25.80;35.90
75500;DHT22;64076;51.466;7.260;2024-02-16T07:56:23;25.80;35.90
75500;DHT22;64076;51.466;7.260;2024-02-16T07:58:49;25.80;35.90
75500;DHT22;64076;51.466;7.260;2024-02-16T08:01:14;25.80;35.90
75500;DHT22;64076;51.466;7.260;2024-02-16T08:03:42;25.80;35.80
75500;DHT22;64076;51.466;7.260;2024-02-16T08:06:08;25.90;35.80
75500;DHT22;64076;51.466;7.260;2024-02-16T08:08:34;25.90;35.70
75500;DHT22;64076;51.466;7.260;2024-02-16T08:10:59;25.90;35.70
75500;DHT22;64076;51.466;7.260;2024-02-16T08:13:25;25.90;35.80
75500;DHT22;64076;51.466;7.260;2024-02-16T08:15:50;25.90;35.80
75500;DHT22;64076;51.466;7.260;2024-02-16T08:18:17;26.00;35.80
75500;DHT22;64076;51.466;7.260;2024-02-16T08:20:43;26.00;35.70
75500;DHT22;64076;51.466;7.260;2024-02-16T08:23:09;26.00;35.70
75500;DHT22;64076;51.466;7.260;2024-02-16T08:25:34;26.00;35.70
75500;DHT22;64076;51.466;7.260;2024-02-16T08:28:00;26.00;35.70
75500;DHT22;64076;51.466;7.260;2024-02-16T08:30:27;26.00;35.70
75500;DHT22;64076;51.466;7.260;2024-02-16T08:32:52;26.00;35.70
75500;DHT22;64076;51.466;7.260;2024-02-16T08:35:18;26.00;35.70
75500;DHT22;64076;51.466;7.260;2024-02-16T08:37:44;26.10;35.70
75500;DHT22;64076;51.466;7.260;2024-02-16T08:40:12;26.10;35.70
75500;DHT22;64076;51.466;7.260;2024-02-16T08:42:40;26.10;35.70
75500;DHT22;64076;51.466;7.260;2024-02-16T08:45:06;26.10;35.70
75500;DHT22;64076;51.466;7.260;2024-02-16T08:47:32;26.10;35.70
75500;DHT22;64076;51.466;7.260;2024-02-16T08:49:58;26.10;35.70
75500;DHT22;64076;51.466;7.260;2024-02-16T08:52:23;26.10;35.80
75500;DHT22;64076;51.466;7.260;2024-02-16T08:54:49;26.10;35.70
75500;DHT22;64076;51.466;7.260;2024-02-16T08:57:14;26.10;35.70
75500;DHT22;64076;51.466;7.260;2024-02-16T08:59:40;26.10;35.70
75500;DHT22;64076;51.466;7.260;2024-02-16T09:02:06;26.10;35.70
75500;DHT22;64076;51.466;7.260;2024-02-16T09:04:31;26.10;35.80
75500;DHT22;64076;51.466;7.260;2024-02-16T09:06:57;26.10;35.80
75500;DHT22;64076;51.466;7.260;2024-02-16T09:09:22;26.10;35.80
75500;DHT22;64076;51.466;7.260;2024-02-16T09:11:48;26.10;35.70
75500;DHT22;64076;51.466;7.260;2024-02-16T09:14:14;26.10;35.80
75500;DHT22;64076;51.466;7.260;2024-02-16T09:16:39;26.20;35.80
75500;DHT22;64076;51.466;7.260;2024-02-16T09:19:05;26.20;35.70
75500;DHT22;64076;51.466;7.260;2024-02-16T09:21:31;26.20;35.70
75500;DHT22;64076;51.466;7.260;2024-02-16T09:23:56;26.20;35.80
75500;DHT22;64076;51.466;7.260;2024-02-16T09:26:27;26.20;35.80
75500;DHT22;64076;51.466;7.260;2024-02-16T09:28:56;26.20;35.80
75500;DHT22;64076;51.466;7.260;2024-02-16T09:31:22;26.20;35.80
75500;DHT22;64076;51.466;7.260;2024-02-16T09:33:48;26.20;35.80
75500;DHT22;64076;51.466;7.260;2024-02-16T09:36:14;26.30;35.80
75500;DHT22;64076;51.466;7.260;2024-02-16T09:38:39;26.20;35.80
75500;DHT22;64076;51.466;7.260;2024-02-16T09:41:05;26.30;35.80
75500;DHT22;64076;51.466;7.260;2024-02-16T09:43:31;26.30;35.80
75500;DHT22;64076;51.466;7.260;2024-02-16T09:45:58;26.30;35.80
75500;DHT22;64076;51.466;7.260;2024-02-16T09:48:27;26.30;35.90
75500;DHT22;64076;51.466;7.260;2024-02-16T09:50:57;26.30;35.90
75500;DHT22;64076;51.466;7.260;2024-02-16T09:53:28;26.30;35.90
75500;DHT22;64076;51.466;7.260;2024-02-16T09:55:54;26.30;35.90
75500;DHT22;64076;51.466;7.260;2024-02-16T09:58:20;26.30;35.90
75500;DHT22;64076;51.466;7.260;2024-02-16T10:00:53;26.30;35.90
75500;DHT22;64076;51.466;7.260;2024-02-16T10:03:30;26.30;36.00
75500;DHT22;64076;51.466;7.260;2024-02-16T10:06:05;26.30;36.00
75500;DHT22;64076;51.466;7.260;2024-02-16T10:08:32;26.30;36.00
75500;DHT22;64076;51.466;7.260;2024-02-16T10:11:04;26.30;36.00
75500;DHT22;64076;51.466;7.260;2024-02-16T10:13:31;26.30;36.10
75500;DHT22;64076;51.466;7.260;2024-02-16T10:16:07;26.30;36.10
75500;DHT22;64076;51.466;7.260;2024-02-16T10:18:37;26.30;36.10
75500;DHT22;64076;51.466;7.260;2024-02-16T10:21:04;26.30;36.10
75500;DHT22;64076;51.466;7.260;2024-02-16T10:23:29;26.30;36.10
75500;DHT22;64076;51.466;7.260;2024-02-16T10:25:55;26.30;36.10
75500;DHT22;64076;51.466;7.260;2024-02-16T10:28:21;26.40;36.20
75500;DHT22;64076;51.466;7.260;2024-02-16T10:30:57;26.40;36.20
75500;DHT22;64076;51.466;7.260;2024-02-16T10:33:24;26.40;36.20
75500;DHT22;64076;51.466;7.260;2024-02-16T10:35:50;26.40;36.30
75500;DHT22;64076;51.466;7.260;2024-02-16T10:38:17;26.40;36.30
75500;DHT22;64076;51.466;7.260;2024-02-16T10:40:43;26.40;36.30
75500;DHT22;64076;51.466;7.260;2024-02-16T10:43:12;26.40;36.30
75500;DHT22;64076;51.466;7.260;2024-02-16T10:45:39;26.40;36.40
75500;DHT22;64076;51.466;7.260;2024-02-16T10:48:06;26.40;36.40
75500;DHT22;64076;51.466;7.260;2024-02-16T10:50:34;26.40;36.40
75500;DHT22;64076;51.466;7.260;2024-02-16T10:53:24;26.40;36.40
75500;DHT22;64076;51.466;7.260;2024-02-16T10:55:56;26.40;36.50
75500;DHT22;64076;51.466;7.260;2024-02-16T10:58:22;26.40;36.50
75500;DHT22;64076;51.466;7.260;2024-02-16T11:00:49;26.40;36.50
75500;DHT22;64076;51.466;7.260;2024-02-16T11:03:17;26.40;36.60
75500;DHT22;64076;51.466;7.260;2024-02-16T11:05:42;26.40;36.70
75500;DHT22;64076;51.466;7.260;2024-02-16T11:08:15;26.40;36.70
75500;DHT22;64076;51.466;7.260;2024-02-16T11:10:53;26.40;36.70
75500;DHT22;64076;51.466;7.260;2024-02-16T11:13:25;26.40;36.70
75500;DHT22;64076;51.466;7.260;2024-02-16T11:15:59;26.50;36.80
75500;DHT22;64076;51.466;7.260;2024-02-16T11:18:27;26.50;36.80
75500;DHT22;64076;51.466;7.260;2024-02-16T11:20:53;26.50;36.90
75500;DHT22;64076;51.466;7.260;2024-02-16T11:23:28;26.50;36.90
75500;DHT22;64076;51.466;7.260;2024-02-16T11:26:00;26.50;36.90
75500;DHT22;64076;51.466;7.260;2024-02-16T11:28:27;26.50;36.90
75500;DHT22;64076;51.466;7.260;2024-02-16T11:30:54;26.50;37.00
75500;DHT22;64076;51.466;7.260;2024-02-16T11:33:19;26.50;37.00
75500;DHT22;64076;51.466;7.260;2024-02-16T11:36:16;26.50;37.00
75500;DHT22;64076;51.466;7.260;2024-02-16T11:38:42;26.50;37.00
75500;DHT22;64076;51.466;7.260;2024-02-16T11:41:09;26.50;37.00
75500;DHT22;64076;51.466;7.260;2024-02-16T11:43:34;26.50;37.00
75500;DHT22;64076;51.466;7.260;2024-02-16T11:46:11;26.50;37.10
75500;DHT22;64076;51.466;7.260;2024-02-16T11:48:36;26.50;37.10
75500;DHT22;64076;51.466;7.260;2024-02-16T11:51:03;26.50;37.10
75500;DHT22;64076;51.466;7.260;2024-02-16T11:53:30;26.50;37.10
75500;DHT22;64076;51.466;7.260;2024-02-16T11:55:56;26.50;37.10
75500;DHT22;64076;51.466;7.260;2024-02-16T11:58:22;26.50;37.10
75500;DHT22;64076;51.466;7.260;2024-02-16T12:00:49;26.50;37.20
75500;DHT22;64076;51.466;7.260;2024-02-16T12:03:34;26.50;37.20
75500;DHT22;64076;51.466;7.260;2024-02-16T12:06:01;26.50;37.30
75500;DHT22;64076;51.466;7.260;2024-02-16T12:08:33;26.50;37.30
75500;DHT22;64076;51.466;7.260;2024-02-16T12:10:59;26.50;37.30
75500;DHT22;64076;51.466;7.260;2024-02-16T12:13:28;26.50;37.30
75500;DHT22;64076;51.466;7.260;2024-02-16T12:15:56;26.50;37.30
75500;DHT22;64076;51.466;7.260;2024-02-16T12:18:22;26.50;37.40
75500;DHT22;64076;51.466;7.260;2024-02-16T12:21:05;26.50;37.40
75500;DHT22;64076;51.466;7.260;2024-02-16T12:23:35;26.50;37.40
75500;DHT22;64076;51.466;7.260;2024-02-16T12:26:01;26.50;37.40
75500;DHT22;64076;51.466;7.260;2024-02-16T12:28:28;26.50;37.40
75500;DHT22;64076;51.466;7.260;2024-02-16T12:30:55;26.40;37.60
75500;DHT22;64076;51.466;7.260;2024-02-16T12:33:25;26.40;37.70
75500;DHT22;64076;51.466;7.260;2024-02-16T12:36:05;26.30;37.80
75500;DHT22;64076;51.466;7.260;2024-02-16T12:38:31;26.20;37.90
75500;DHT22;64076;51.466;7.260;2024-02-16T12:40:57;26.20;37.90
75500;DHT22;64076;51.466;7.260;2024-02-16T12:43:23;26.20;37.90
75500;DHT22;64076;51.466;7.260;2024-02-16T12:45:50;26.20;37.90
75500;DHT22;64076;51.466;7.260;2024-02-16T12:48:16;26.20;37.90
75500;DHT22;64076;51.466;7.260;2024-02-16T12:50:41;26.20;37.90
75500;DHT22;64076;51.466;7.260;2024-02-16T12:53:07;26.20;37.90
75500;DHT22;64076;51.466;7.260;2024-02-16T12:55:33;26.20;37.90
75500;DHT22;64076;51.466;7.260;2024-02-16T12:57:59;26.20;37.80
75500;DHT22;64076;51.466;7.260;2024-02-16T13:00:24;26.20;37.80
75500;DHT22;64076;51.466;7.260;2024-02-16T13:02:50;26.20;37.80
75500;DHT22;64076;51.466;7.260;2024-02-16T13:05:16;26.20;37.90
75500;DHT22;64076;51.466;7.260;2024-02-16T13:07:41;26.30;37.80
75500;DHT22;64076;51.466;7.260;2024-02-16T13:10:10;26.30;37.80
75500;DHT22;64076;51.466;7.260;2024-02-16T13:12:37;26.20;37.80
75500;DHT22;64076;51.466;7.260;2024-02-16T13:15:03;26.30;37.80
75500;DHT22;64076;51.466;7.260;2024-02-16T13:17:30;26.30;37.80
75500;DHT22;64076;51.466;7.260;2024-02-16T13:19:56;26.20;37.90
75500;DHT22;64076;51.466;7.260;2024-02-16T13:22:29;26.20;38.00
75500;DHT22;64076;51.466;7.260;2024-02-16T13:24:54;26.20;38.10
75500;DHT22;64076;51.466;7.260;2024-02-16T13:27:20;26.20;38.20
75500;DHT22;64076;51.466;7.260;2024-02-16T13:29:45;26.20;38.30
75500;DHT22;64076;51.466;7.260;2024-02-16T13:32:11;26.20;38.30
75500;DHT22;64076;51.466;7.260;2024-02-16T13:34:36;26.20;38.40
75500;DHT22;64076;51.466;7.260;2024-02-16T13:37:02;26.20;38.50
75500;DHT22;64076;51.466;7.260;2024-02-16T13:39:28;26.20;38.60
75500;DHT22;64076;51.466;7.260;2024-02-16T13:41:53;26.20;38.60
75500;DHT22;64076;51.466;7.260;2024-02-16T13:44:20;26.20;38.80
75500;DHT22;64076;51.466;7.260;2024-02-16T13:46:46;26.20;38.80
75500;DHT22;64076;51.466;7.260;2024-02-16T13:49:15;26.20;38.80
75500;DHT22;64076;51.466;7.260;2024-02-16T13:51:43;26.20;39.00
75500;DHT22;64076;51.466;7.260;2024-02-16T13:54:10;26.20;39.00
75500;DHT22;64076;51.466;7.260;2024-02-16T13:56:36;26.20;39.20
75500;DHT22;64076;51.466;7.260;2024-02-16T13:59:02;26.20;39.30
75500;DHT22;64076;51.466;7.260;2024-02-16T14:01:29;26.20;39.40
75500;DHT22;64076;51.466;7.260;2024-02-16T14:03:54;26.20;39.70
75500;DHT22;64076;51.466;7.260;2024-02-16T14:06:20;26.20;39.90
75500;DHT22;64076;51.466;7.260;2024-02-16T14:08:46;26.20;40.10
75500;DHT22;64076;51.466;7.260;2024-02-16T14:11:14;26.20;40.20
75500;DHT22;64076;51.466;7.260;2024-02-16T14:13:39;26.20;40.40
75500;DHT22;64076;51.466;7.260;2024-02-16T14:16:05;26.10;40.50
75500;DHT22;64076;51.466;7.260;2024-02-16T14:18:31;26.10;40.70
75500;DHT22;64076;51.466;7.260;2024-02-16T14:20:56;26.10;40.80
75500;DHT22;64076;51.466;7.260;2024-02-16T14:23:22;26.10;40.90
75500;DHT22;64076;51.466;7.260;2024-02-16T14:25:47;26.10;41.10
75500;DHT22;64076;51.466;7.260;2024-02-16T14:28:13;26.00;41.20
75500;DHT22;64076;51.466;7.260;2024-02-16T14:30:39;26.00;41.30
75500;DHT22;64076;51.466;7.260;2024-02-16T14:33:05;26.00;41.40
75500;DHT22;64076;51.466;7.260;2024-02-16T14:35:31;26.00;41.50
75500;DHT22;64076;51.466;7.260;2024-02-16T14:38:02;26.00;41.60
75500;DHT22;64076;51.466;7.260;2024-02-16T14:40:28;25.90;41.70
75500;DHT22;64076;51.466;7.260;2024-02-16T14:42:53;25.90;41.80
75500;DHT22;64076;51.466;7.260;2024-02-16T14:45:19;25.90;41.80
75500;DHT22;64076;51.466;7.260;2024-02-16T14:47:46;25.90;41.80
75500;DHT22;64076;51.466;7.260;2024-02-16T14:50:12;25.90;41.90
75500;DHT22;64076;51.466;7.260;2024-02-16T14:52:38;25.90;42.00
75500;DHT22;64076;51.466;7.260;2024-02-16T14:55:05;25.90;42.00
75500;DHT22;64076;51.466;7.260;2024-02-16T14:57:41;25.90;42.10
75500;DHT22;64076;51.466;7.260;2024-02-16T15:00:08;25.90;42.10
75500;DHT22;64076;51.466;7.260;2024-02-16T15:02:34;25.90;42.20
75500;DHT22;64076;51.466;7.260;2024-02-16T15:04:59;25.90;42.30
75500;DHT22;64076;51.466;7.260;2024-02-16T15:07:25;25.90;42.30
75500;DHT22;64076;51.466;7.260;2024-02-16T15:09:50;25.90;42.30
75500;DHT22;64076;51.466;7.260;2024-02-16T15:12:16;25.90;42.40
75500;DHT22;64076;51.466;7.260;2024-02-16T15:14:45;25.90;42.40
75500;DHT22;64076;51.466;7.260;2024-02-16T15:17:11;25.90;42.40
75500;DHT22;64076;51.466;7.260;2024-02-16T15:19:37;25.90;42.40
75500;DHT22;64076;51.466;7.260;2024-02-16T15:22:02;25.90;42.30
75500;DHT22;64076;51.466;7.260;2024-02-16T15:24:28;25.90;42.30
75500;DHT22;64076;51.466;7.260;2024-02-16T15:26:53;25.90;42.30
75500;DHT22;64076;51.466;7.260;2024-02-16T15:29:19;25.90;42.30